Decoded Metar for FTTA (SARH in CHAD) (IATA:SRH) | Meteo·Mobile Aviation Weather
aviador You're here:

FTTA Decoded Metar

SARH in CHAD
Report Time2019-09-16 23:00:00
UTC Time2019-09-17 00:14:09
Flight Rules Old
Wind060° at 06 kt
W.Decomp.*RWY 04: 5.7 kt HW 2.0 kt RCW
Visibility9999 m
Phenomena:Light Thuderstorm Rain
Clouds:Scattered 020 Hf
Few CB 050 Hf
Expected CloudBase > 400 ft AGL from Temp-Dew spread
CeilingNone
Temp22°C (ISA +9)
Dew Point21°C (94% RH)
QNH1016 hPa
Density Alt2,523 ft
Elevation1,198 ft
Report Wrong Elevation
Raw Report
FTTA 162300Z 06006KT 9999 -TSRA SCT020 FEW050CB 22/21 Q1016=

Extra information for FTTA:More info

Metar Taf Metar & Taf Last 4 Metars F.Rules Stats Wind Profile Meteogram Temp Stats Airport Information Weather charts Add Link Nearby VenuesMetar ALERT Operation Metar Decoded Social comments